createdAt,value
2017-12-30T00:00:37.716Z,2.45
2017-12-30T00:03:05.590Z,2.83
2017-12-30T00:05:33.450Z,2.75
2017-12-30T00:08:01.318Z,3.30
2017-12-30T00:10:29.186Z,3.08
2017-12-30T00:12:57.054Z,3.30
2017-12-30T00:15:24.919Z,4.93
2017-12-30T00:17:52.788Z,3.67
2017-12-30T00:20:20.655Z,5.07
2017-12-30T00:22:48.522Z,2.65
2017-12-30T00:25:16.390Z,2.37
2017-12-30T00:27:44.256Z,2.30
2017-12-30T00:30:12.361Z,3.37
2017-12-30T00:32:40.196Z,3.42
2017-12-30T00:35:08.063Z,7.18
2017-12-30T00:37:35.931Z,3.67
2017-12-30T00:40:03.798Z,6.32
2017-12-30T00:42:31.666Z,5.82
2017-12-30T00:44:59.538Z,1.98
2017-12-30T00:47:27.400Z,1.85
2017-12-30T00:49:55.267Z,3.47
2017-12-30T00:52:23.134Z,6.97
2017-12-30T00:54:51.001Z,3.83
2017-12-30T00:57:18.869Z,4.70
2017-12-30T00:59:46.737Z,3.90
2017-12-30T01:02:14.603Z,2.58
2017-12-30T01:04:42.472Z,2.65
2017-12-30T01:07:10.338Z,2.92
2017-12-30T01:09:38.206Z,1.58
2017-12-30T01:12:06.073Z,4.45
2017-12-30T01:14:33.971Z,3.58
2017-12-30T01:17:01.807Z,4.22
2017-12-30T01:19:29.675Z,5.22
2017-12-30T01:21:57.541Z,2.80
2017-12-30T01:24:25.409Z,3.72
2017-12-30T01:26:53.270Z,3.40
2017-12-30T01:29:21.144Z,3.45
2017-12-30T01:31:49.011Z,6.82
2017-12-30T01:34:16.879Z,5.25
2017-12-30T01:36:44.745Z,2.50
2017-12-30T01:39:12.613Z,3.65
2017-12-30T01:41:40.481Z,7.43
2017-12-30T01:44:08.348Z,7.87
2017-12-30T01:46:36.216Z,4.10
2017-12-30T01:49:04.082Z,6.40
2017-12-30T01:51:31.951Z,2.87
2017-12-30T01:53:59.817Z,12.98
2017-12-30T01:56:27.685Z,4.10
2017-12-30T01:58:56.269Z,6.68
2017-12-30T02:01:24.136Z,14.15
2017-12-30T02:03:52.005Z,7.87
2017-12-30T02:06:19.870Z,7.10
2017-12-30T02:08:47.742Z,10.40
2017-12-30T02:11:15.605Z,5.32
2017-12-30T02:13:43.472Z,5.37
2017-12-30T02:16:11.339Z,15.90
2017-12-30T02:18:39.207Z,12.50
2017-12-30T02:21:07.075Z,7.65
2017-12-30T02:23:34.942Z,12.60
2017-12-30T02:26:02.809Z,11.73
2017-12-30T02:28:30.676Z,8.82
2017-12-30T02:30:58.544Z,12.05
2017-12-30T02:33:26.411Z,5.47
2017-12-30T02:35:54.279Z,6.30
2017-12-30T02:38:22.145Z,9.77
2017-12-30T02:40:50.013Z,16.12
2017-12-30T02:43:17.880Z,15.48
2017-12-30T02:45:45.748Z,16.98
2017-12-30T02:48:14.436Z,10.48
2017-12-30T02:50:42.302Z,10.13
2017-12-30T02:53:10.168Z,10.05
2017-12-30T02:55:38.035Z,9.15
2017-12-30T02:58:05.903Z,5.20
2017-12-30T03:00:33.775Z,14.98
2017-12-30T03:03:01.638Z,11.45
2017-12-30T03:05:29.505Z,17.48
2017-12-30T03:07:57.374Z,18.12
2017-12-30T03:10:25.246Z,15.15
2017-12-30T03:12:53.106Z,7.25
2017-12-30T03:15:20.974Z,5.00
2017-12-30T03:17:48.841Z,11.95
2017-12-30T03:20:16.708Z,13.27
2017-12-30T03:22:44.575Z,18.08
2017-12-30T03:25:12.444Z,6.80
2017-12-30T03:27:40.311Z,15.25
2017-12-30T03:30:08.179Z,21.05
2017-12-30T03:32:36.046Z,27.15
2017-12-30T03:35:03.912Z,21.85
2017-12-30T03:37:31.780Z,7.28
2017-12-30T03:39:59.648Z,15.35
2017-12-30T03:42:27.514Z,13.27
2017-12-30T03:44:55.382Z,16.23
2017-12-30T03:47:23.250Z,11.40
2017-12-30T03:49:51.116Z,11.73
2017-12-30T03:52:18.984Z,10.15
2017-12-30T03:54:46.851Z,14.98
2017-12-30T03:57:14.766Z,8.57
2017-12-30T03:59:43.405Z,16.50
2017-12-30T04:02:11.272Z,41.70
2017-12-30T04:04:39.139Z,24.23
2017-12-30T04:07:07.007Z,14.13
2017-12-30T04:09:34.874Z,12.10
2017-12-30T04:12:02.741Z,17.15
2017-12-30T04:14:30.609Z,8.45
2017-12-30T04:16:58.476Z,12.05
2017-12-30T04:19:26.343Z,11.60
2017-12-30T04:21:54.211Z,8.93
2017-12-30T04:24:22.078Z,15.45
2017-12-30T04:26:49.945Z,10.43
2017-12-30T04:29:17.813Z,14.23
2017-12-30T04:31:45.680Z,8.60
2017-12-30T04:34:13.547Z,9.63
2017-12-30T04:36:41.446Z,18.37
2017-12-30T04:39:10.101Z,9.18
2017-12-30T04:41:37.977Z,18.15
2017-12-30T04:44:05.835Z,9.05
2017-12-30T04:46:33.703Z,10.68
2017-12-30T04:49:01.570Z,14.13
2017-12-30T04:51:29.438Z,20.30
2017-12-30T04:53:57.304Z,10.15
2017-12-30T04:56:25.173Z,9.90
2017-12-30T04:58:53.040Z,28.33
2017-12-30T05:01:20.906Z,16.62
2017-12-30T05:03:48.773Z,13.98
2017-12-30T05:06:16.642Z,13.65
2017-12-30T05:08:44.509Z,17.95
2017-12-30T05:11:12.384Z,18.45
2017-12-30T05:13:40.243Z,8.50
2017-12-30T05:16:08.110Z,10.38
2017-12-30T05:18:35.980Z,20.60
2017-12-30T05:21:03.846Z,15.93
2017-12-30T05:23:31.642Z,17.58
2017-12-30T05:25:59.478Z,10.05
2017-12-30T05:28:27.345Z,9.13
2017-12-30T05:30:55.212Z,12.60
2017-12-30T05:33:23.079Z,17.73
2017-12-30T05:35:50.946Z,14.57
2017-12-30T05:38:18.813Z,14.25
2017-12-30T05:40:46.680Z,7.60
2017-12-30T05:43:14.548Z,9.05
2017-12-30T05:45:42.416Z,13.68
2017-12-30T05:48:10.283Z,9.48
2017-12-30T05:50:38.155Z,11.12
2017-12-30T05:53:06.023Z,15.68
2017-12-30T05:55:33.885Z,22.15
2017-12-30T05:58:01.752Z,13.10
2017-12-30T06:00:29.619Z,14.87
2017-12-30T06:02:58.306Z,11.68
2017-12-30T06:05:26.173Z,20.80
2017-12-30T06:07:54.040Z,24.67
2017-12-30T06:10:21.909Z,13.55
2017-12-30T06:12:49.879Z,20.42
2017-12-30T06:15:17.744Z,8.82
2017-12-30T06:17:45.612Z,13.60
2017-12-30T06:20:13.479Z,19.37
2017-12-30T06:22:41.346Z,19.62
2017-12-30T06:25:09.219Z,14.93
2017-12-30T06:27:37.008Z,10.85
2017-12-30T06:30:04.846Z,17.25
2017-12-30T06:32:32.713Z,15.95
2017-12-30T06:35:00.581Z,23.20
2017-12-30T06:37:28.448Z,21.58
2017-12-30T06:39:56.316Z,24.27
2017-12-30T06:45:17.446Z,14.50
2017-12-30T06:47:45.317Z,19.65
2017-12-30T06:50:13.180Z,20.52
2017-12-30T06:52:41.047Z,19.65
2017-12-30T06:55:08.915Z,15.05
2017-12-30T06:57:42.223Z,12.70
2017-12-30T07:00:10.077Z,25.20
2017-12-30T07:02:37.945Z,20.42
2017-12-30T07:05:05.812Z,12.05
2017-12-30T07:07:33.606Z,13.32
2017-12-30T07:10:01.445Z,10.45
2017-12-30T07:12:29.311Z,11.25
2017-12-30T07:14:57.178Z,12.30
2017-12-30T07:17:25.046Z,15.75
2017-12-30T07:19:52.913Z,20.65
2017-12-30T07:22:20.779Z,14.82
2017-12-30T07:24:48.580Z,21.52
2017-12-30T07:27:16.298Z,24.63
2017-12-30T07:29:44.017Z,22.95
2017-12-30T07:32:12.497Z,15.48
2017-12-30T07:34:40.983Z,18.25
2017-12-30T07:37:09.465Z,19.98
2017-12-30T07:39:37.947Z,18.12
2017-12-30T07:42:06.588Z,27.87
2017-12-30T07:44:34.690Z,37.33
2017-12-30T07:49:59.116Z,26.67
2017-12-30T07:52:29.683Z,15.57
2017-12-30T07:54:59.088Z,8.85
2017-12-30T07:57:26.946Z,7.30
2017-12-30T07:59:55.205Z,7.97
2017-12-30T08:02:23.185Z,8.73
2017-12-30T08:04:50.894Z,12.18
2017-12-30T08:07:18.633Z,2.78
2017-12-30T08:09:46.509Z,7.60
2017-12-30T08:12:14.377Z,5.60
2017-12-30T08:14:42.245Z,9.60
2017-12-30T08:17:14.338Z,15.02
2017-12-30T08:19:42.049Z,6.37
2017-12-30T08:22:09.769Z,9.70
2017-12-30T08:24:38.249Z,6.05
2017-12-30T08:27:06.087Z,13.98
2017-12-30T08:29:33.954Z,10.50
2017-12-30T08:32:01.821Z,10.52
2017-12-30T08:34:29.689Z,9.00
2017-12-30T08:36:57.555Z,13.50
2017-12-30T08:39:25.320Z,9.60
2017-12-30T08:41:53.187Z,8.35
2017-12-30T08:44:21.056Z,10.32
2017-12-30T08:46:48.922Z,9.25
2017-12-30T08:49:16.791Z,9.05
2017-12-30T08:51:44.656Z,8.52
2017-12-30T08:54:12.524Z,6.12
2017-12-30T08:56:40.392Z,12.30
2017-12-30T08:59:08.259Z,8.32
2017-12-30T09:01:36.053Z,15.85
2017-12-30T09:04:03.891Z,18.42
2017-12-30T09:06:31.759Z,10.63
2017-12-30T09:08:59.626Z,10.80
2017-12-30T09:11:28.313Z,10.43
2017-12-30T09:13:56.187Z,7.45
2017-12-30T09:16:23.973Z,6.82
2017-12-30T09:18:51.812Z,9.77
2017-12-30T09:21:19.606Z,9.30
2017-12-30T09:23:47.444Z,10.27
2017-12-30T09:26:15.311Z,12.85
2017-12-30T09:28:43.179Z,8.85
2017-12-30T09:31:11.046Z,7.97
2017-12-30T09:33:38.914Z,7.18
2017-12-30T09:36:06.780Z,9.38
2017-12-30T09:38:34.649Z,7.28
2017-12-30T09:41:02.516Z,7.93
2017-12-30T09:43:30.895Z,9.02
2017-12-30T09:45:58.764Z,8.43
2017-12-30T09:48:26.632Z,5.82
2017-12-30T09:50:54.497Z,6.28
2017-12-30T09:53:22.671Z,5.70
2017-12-30T09:55:50.538Z,6.53
2017-12-30T09:58:18.406Z,6.72
2017-12-30T10:00:46.316Z,5.53
2017-12-30T10:03:14.959Z,4.05
2017-12-30T10:05:46.560Z,5.10
2017-12-30T10:08:14.483Z,3.70
2017-12-30T10:10:42.350Z,4.57
2017-12-30T10:13:10.219Z,14.87
2017-12-30T10:15:38.127Z,5.60
2017-12-30T10:18:06.772Z,5.10
2017-12-30T10:20:34.538Z,5.78
2017-12-30T10:23:02.405Z,5.50
2017-12-30T10:25:30.271Z,4.82
2017-12-30T10:27:58.140Z,4.28
2017-12-30T10:30:26.007Z,3.95
2017-12-30T10:32:53.873Z,3.83
2017-12-30T10:35:21.741Z,8.18
2017-12-30T10:37:49.540Z,4.80
2017-12-30T10:40:18.193Z,3.28
2017-12-30T10:42:46.059Z,2.15
2017-12-30T10:45:13.932Z,3.17
2017-12-30T10:47:41.794Z,2.62
2017-12-30T10:50:09.661Z,1.75
2017-12-30T10:52:37.528Z,1.60
2017-12-30T10:55:05.396Z,3.58
2017-12-30T10:57:33.264Z,4.43
2017-12-30T11:00:01.130Z,1.70
2017-12-30T11:02:28.998Z,3.15
2017-12-30T11:04:56.865Z,2.03
2017-12-30T11:07:24.733Z,5.80
2017-12-30T11:09:52.600Z,4.37
2017-12-30T11:12:20.467Z,3.10
2017-12-30T11:14:48.334Z,2.78
2017-12-30T11:17:16.202Z,4.53
2017-12-30T11:19:44.068Z,3.58
2017-12-30T11:22:11.936Z,2.10
2017-12-30T11:24:39.803Z,2.58
2017-12-30T11:27:07.671Z,2.87
2017-12-30T11:29:35.540Z,2.35
2017-12-30T11:32:03.404Z,4.00
2017-12-30T11:34:31.274Z,3.55
2017-12-30T11:36:59.140Z,3.33
2017-12-30T11:39:27.008Z,2.20
2017-12-30T11:41:55.080Z,2.80
2017-12-30T11:44:25.530Z,2.20
2017-12-30T11:46:55.603Z,2.42
2017-12-30T11:49:24.293Z,3.20
2017-12-30T11:51:52.182Z,2.00
2017-12-30T11:54:20.048Z,1.85
2017-12-30T11:56:50.381Z,2.87
2017-12-30T11:59:18.745Z,2.20
2017-12-30T12:01:46.774Z,3.15
2017-12-30T12:04:15.408Z,4.40
2017-12-30T12:06:43.275Z,3.10
2017-12-30T12:09:11.143Z,2.35
2017-12-30T12:11:39.011Z,3.40
2017-12-30T12:14:06.775Z,4.90
2017-12-30T12:16:34.643Z,3.08
2017-12-30T12:19:02.512Z,4.47
2017-12-30T12:21:31.281Z,2.33
2017-12-30T12:23:59.167Z,2.30
2017-12-30T12:26:27.034Z,2.58
2017-12-30T12:28:55.019Z,4.40
2017-12-30T12:31:22.870Z,7.32
2017-12-30T12:33:50.738Z,4.12
2017-12-30T12:36:18.813Z,2.60
2017-12-30T12:38:46.779Z,8.82
2017-12-30T12:41:15.524Z,10.40
2017-12-30T12:43:43.334Z,3.42
2017-12-30T12:46:11.206Z,7.57
2017-12-30T12:48:39.068Z,7.18
2017-12-30T12:51:09.589Z,6.28
2017-12-30T12:53:37.568Z,36.22
2017-12-30T12:56:05.435Z,4.62
2017-12-30T12:58:33.302Z,4.22
2017-12-30T13:01:01.173Z,5.82
2017-12-30T13:03:29.037Z,8.13
2017-12-30T13:05:56.904Z,8.25
2017-12-30T13:08:24.774Z,7.68
2017-12-30T13:10:52.640Z,6.53
2017-12-30T13:13:20.506Z,7.55
2017-12-30T13:15:48.375Z,4.97
2017-12-30T13:18:16.240Z,6.47
2017-12-30T13:20:44.139Z,7.20
2017-12-30T13:23:11.976Z,9.30
2017-12-30T13:25:39.843Z,7.05
2017-12-30T13:28:07.709Z,7.00
2017-12-30T13:30:35.578Z,7.53
2017-12-30T13:33:03.445Z,6.05
2017-12-30T13:35:31.312Z,6.15
2017-12-30T13:37:59.180Z,10.02
2017-12-30T13:40:27.046Z,5.93
2017-12-30T13:42:54.914Z,5.43
2017-12-30T13:45:22.781Z,9.43
2017-12-30T13:47:50.649Z,5.07
2017-12-30T13:50:18.517Z,7.90
2017-12-30T13:52:46.383Z,4.57
2017-12-30T13:55:14.250Z,12.25
2017-12-30T13:57:42.119Z,15.25
2017-12-30T14:00:09.986Z,6.05
2017-12-30T14:02:37.852Z,5.82
2017-12-30T14:05:05.720Z,15.18
2017-12-30T14:07:33.441Z,7.95
2017-12-30T14:10:01.162Z,6.05
2017-12-30T14:12:28.883Z,8.60
2017-12-30T14:14:56.607Z,11.25
2017-12-30T14:17:24.334Z,6.45
2017-12-30T14:19:52.105Z,5.30
2017-12-30T14:22:19.972Z,8.00
2017-12-30T14:24:47.840Z,6.18
2017-12-30T14:27:15.708Z,6.50
2017-12-30T14:29:43.505Z,7.78
2017-12-30T14:32:11.257Z,9.02
2017-12-30T14:34:39.103Z,9.95
2017-12-30T14:37:06.972Z,11.55
2017-12-30T14:39:34.839Z,12.82
2017-12-30T14:42:02.705Z,11.63
2017-12-30T14:44:31.392Z,8.63
2017-12-30T14:46:59.260Z,10.68
2017-12-30T14:49:27.126Z,13.68
2017-12-30T14:51:54.994Z,13.60
2017-12-30T14:54:22.862Z,15.20
2017-12-30T14:56:50.731Z,11.70
2017-12-30T14:59:18.596Z,18.12
2017-12-30T15:01:46.463Z,16.42
2017-12-30T15:04:14.331Z,13.20
2017-12-30T15:06:42.197Z,10.10
2017-12-30T15:09:10.067Z,19.17
2017-12-30T15:11:37.781Z,15.20
2017-12-30T15:14:06.261Z,11.60
2017-12-30T15:16:33.977Z,13.68
2017-12-30T15:19:01.697Z,17.67
2017-12-30T15:21:29.504Z,11.57
2017-12-30T15:23:57.371Z,10.95
2017-12-30T15:26:25.240Z,11.57
2017-12-30T15:28:53.106Z,16.25
2017-12-30T15:31:20.973Z,21.05
2017-12-30T15:33:48.841Z,18.73
2017-12-30T15:36:16.708Z,20.10
2017-12-30T15:38:44.576Z,19.05
2017-12-30T15:41:12.443Z,19.02
2017-12-30T15:43:41.577Z,10.10
2017-12-30T15:46:09.407Z,18.05
2017-12-30T15:48:37.274Z,17.70
2017-12-30T15:51:05.141Z,26.10
2017-12-30T15:53:33.009Z,17.15
2017-12-30T15:56:00.879Z,22.87
2017-12-30T15:58:28.742Z,10.07
2017-12-30T16:00:56.611Z,16.85
2017-12-30T16:03:24.477Z,13.62
2017-12-30T16:05:52.345Z,23.75
2017-12-30T16:08:20.212Z,17.65
2017-12-30T16:10:47.929Z,16.60
2017-12-30T16:13:15.645Z,21.55
2017-12-30T16:15:43.365Z,15.20
2017-12-30T16:18:11.083Z,20.20
2017-12-30T16:20:38.814Z,18.92
2017-12-30T16:23:06.699Z,13.07
2017-12-30T16:25:34.566Z,18.17
2017-12-30T16:28:02.298Z,23.85
2017-12-30T16:30:30.023Z,13.98
2017-12-30T16:32:57.861Z,12.40
2017-12-30T16:35:26.184Z,17.80
2017-12-30T16:37:55.136Z,24.20
2017-12-30T16:40:24.126Z,15.65
2017-12-30T16:42:52.152Z,16.37
2017-12-30T16:45:19.869Z,18.27
2017-12-30T16:47:50.177Z,14.10
2017-12-30T16:50:18.962Z,30.45
2017-12-30T16:52:46.676Z,18.20
2017-12-30T16:55:14.425Z,20.45
2017-12-30T16:57:42.149Z,15.95
2017-12-30T17:00:09.897Z,12.10
2017-12-30T17:02:38.106Z,13.68
2017-12-30T17:05:05.974Z,18.95
2017-12-30T17:07:33.841Z,15.10
2017-12-30T17:10:01.708Z,18.20
2017-12-30T17:12:29.576Z,23.75
2017-12-30T17:14:57.443Z,21.15
2017-12-30T17:17:25.331Z,27.77
2017-12-30T17:19:53.177Z,22.85
2017-12-30T17:22:20.892Z,14.85
2017-12-30T17:24:49.453Z,12.63
2017-12-30T17:27:17.294Z,12.30
2017-12-30T17:29:45.159Z,20.88
2017-12-30T17:32:13.026Z,16.12
2017-12-30T17:34:40.893Z,19.23
2017-12-30T17:37:08.760Z,14.90
2017-12-30T17:39:37.874Z,14.98
2017-12-30T17:42:07.626Z,15.05
2017-12-30T17:44:37.049Z,21.33
2017-12-30T17:47:05.146Z,17.12
2017-12-30T17:49:32.924Z,19.15
2017-12-30T17:52:00.710Z,21.90
2017-12-30T17:54:30.244Z,17.27
2017-12-30T17:56:58.013Z,14.70
2017-12-30T17:59:25.726Z,12.55
2017-12-30T18:01:53.534Z,17.25
2017-12-30T18:04:22.215Z,19.40
2017-12-30T18:06:51.579Z,13.10
2017-12-30T18:09:19.433Z,17.17
2017-12-30T18:11:47.300Z,20.95
2017-12-30T18:14:15.168Z,14.55
2017-12-30T18:16:43.035Z,26.58
2017-12-30T18:19:10.902Z,13.80
2017-12-30T18:21:38.770Z,13.70
2017-12-30T18:24:06.569Z,10.55
2017-12-30T18:26:34.282Z,17.67
2017-12-30T18:29:02.006Z,15.82
2017-12-30T18:31:30.480Z,17.90
2017-12-30T18:33:58.965Z,21.70
2017-12-30T18:36:27.449Z,13.70
2017-12-30T18:38:55.934Z,23.83
2017-12-30T18:41:24.401Z,12.10
2017-12-30T18:43:52.120Z,17.37
2017-12-30T18:46:19.832Z,14.85
2017-12-30T18:48:47.664Z,11.12
2017-12-30T18:51:15.661Z,14.77
2017-12-30T18:53:43.503Z,16.87
2017-12-30T18:56:11.369Z,15.98
2017-12-30T18:58:39.239Z,15.77
2017-12-30T19:01:07.104Z,15.88
2017-12-30T19:03:34.971Z,16.45
2017-12-30T19:06:02.839Z,14.75
2017-12-30T19:08:30.706Z,17.62
2017-12-30T19:10:59.598Z,13.48
2017-12-30T19:13:27.464Z,18.05
2017-12-30T19:15:55.173Z,19.00
2017-12-30T19:18:23.665Z,16.67
2017-12-30T19:20:51.476Z,16.95
2017-12-30T19:23:19.344Z,22.00
2017-12-30T19:25:47.055Z,21.92
2017-12-30T19:28:15.691Z,10.00
2017-12-30T19:30:43.560Z,11.25
2017-12-30T19:33:11.427Z,14.43
2017-12-30T19:35:39.296Z,12.70
2017-12-30T19:38:07.006Z,10.68
2017-12-30T19:40:35.485Z,12.27
2017-12-30T19:43:03.963Z,13.30
2017-12-30T19:45:32.445Z,15.70
2017-12-30T19:48:00.925Z,11.70
2017-12-30T19:50:29.404Z,7.53
2017-12-30T19:52:57.903Z,21.35
2017-12-30T19:55:26.398Z,6.37
2017-12-30T19:57:54.117Z,11.02
2017-12-30T20:00:21.841Z,13.50
2017-12-30T20:02:49.558Z,14.50
2017-12-30T20:05:18.045Z,12.88
2017-12-30T20:07:46.823Z,11.88
2017-12-30T20:10:14.545Z,8.27
2017-12-30T20:12:42.428Z,9.27
2017-12-30T20:15:10.294Z,8.88
2017-12-30T20:17:38.159Z,11.48
2017-12-30T20:20:06.027Z,13.00
2017-12-30T20:22:33.895Z,22.50
2017-12-30T20:25:01.625Z,28.33
2017-12-30T20:27:29.358Z,16.35
2017-12-30T20:29:57.844Z,35.70
2017-12-30T20:32:26.337Z,23.27
2017-12-30T20:34:54.971Z,11.70
2017-12-30T20:37:22.839Z,10.02
2017-12-30T20:39:50.589Z,8.15
2017-12-30T20:42:18.471Z,7.12
2017-12-30T20:44:46.185Z,8.13
2017-12-30T20:47:13.901Z,5.07
2017-12-30T20:49:41.768Z,6.15
2017-12-30T20:52:09.634Z,7.65
2017-12-30T20:54:37.502Z,7.68
2017-12-30T20:57:05.201Z,7.05
2017-12-30T20:59:33.716Z,11.25
2017-12-30T21:02:01.514Z,8.57
2017-12-30T21:04:29.235Z,4.18
2017-12-30T21:06:56.946Z,8.50
2017-12-30T21:09:24.705Z,5.20
2017-12-30T21:11:52.586Z,4.20
2017-12-30T21:14:20.440Z,6.53
2017-12-30T21:16:48.307Z,8.13
2017-12-30T21:19:16.179Z,9.77
2017-12-30T21:21:43.919Z,7.82
2017-12-30T21:24:11.645Z,7.37
2017-12-30T21:26:40.288Z,4.80
2017-12-30T21:29:08.155Z,4.43
2017-12-30T21:31:35.954Z,3.90
2017-12-30T21:34:04.607Z,3.53
2017-12-30T21:36:32.474Z,5.00
2017-12-30T21:39:00.340Z,3.25
2017-12-30T21:41:28.207Z,6.10
2017-12-30T21:43:56.075Z,9.57
2017-12-30T21:46:23.835Z,6.07
2017-12-30T21:48:51.549Z,8.38
2017-12-30T21:51:20.025Z,10.05
2017-12-30T21:53:48.671Z,5.00
2017-12-30T21:56:16.538Z,4.78
2017-12-30T21:58:44.406Z,9.25
2017-12-30T22:01:12.273Z,2.85
2017-12-30T22:03:40.018Z,4.00
2017-12-30T22:06:07.742Z,4.80
2017-12-30T22:08:36.228Z,4.75
2017-12-30T22:11:04.709Z,7.28
2017-12-30T22:13:33.201Z,3.83
2017-12-30T22:16:00.925Z,5.57
2017-12-30T22:18:28.654Z,48.90
2017-12-30T22:20:56.542Z,25.02
2017-12-30T22:23:24.410Z,68.10
2017-12-30T22:25:52.276Z,5.25
2017-12-30T22:28:20.145Z,2.92
2017-12-30T22:30:48.013Z,5.15
2017-12-30T22:33:15.740Z,4.62
2017-12-30T22:35:43.542Z,4.80
2017-12-30T22:38:11.409Z,4.20
2017-12-30T22:40:39.276Z,3.10
2017-12-30T22:43:07.145Z,1.52
2017-12-30T22:45:35.012Z,1.92
2017-12-30T22:48:02.880Z,6.45
2017-12-30T22:50:30.745Z,2.37
2017-12-30T22:52:58.613Z,1.90
2017-12-30T22:55:26.481Z,5.40
2017-12-30T22:57:54.347Z,2.78
2017-12-30T23:00:54.679Z,6.05
2017-12-30T23:03:22.543Z,2.62
2017-12-30T23:05:50.307Z,3.00
2017-12-30T23:08:18.176Z,5.97
2017-12-30T23:10:46.044Z,1.90
2017-12-30T23:13:13.910Z,2.90
2017-12-30T23:15:41.777Z,2.10
2017-12-30T23:18:09.649Z,4.82
2017-12-30T23:20:37.513Z,1.98
2017-12-30T23:23:05.379Z,5.15
2017-12-30T23:25:33.247Z,6.68
2017-12-30T23:28:01.115Z,7.25
2017-12-30T23:30:28.982Z,5.37
2017-12-30T23:32:56.848Z,11.85
2017-12-30T23:35:25.357Z,5.40
2017-12-30T23:37:53.062Z,3.45
2017-12-30T23:40:21.271Z,2.45
2017-12-30T23:42:49.140Z,2.90
2017-12-30T23:45:16.942Z,5.40
2017-12-30T23:47:45.418Z,2.78
2017-12-30T23:50:13.149Z,4.82
2017-12-30T23:52:41.016Z,6.03
2017-12-30T23:55:08.749Z,3.50
2017-12-30T23:57:37.570Z,3.87
